OKTOBER 24,2014


METAR SMJP 240800Z 21001KT 9999 5000E BR 24/24 Q1010 BECMG AT0940 2000 BR=

METAR SMZO 240800Z NIL=